Time;durP1;ratioP1;P1;durP2;ratioP2;P2;SDS_P1;SDS_P2;PMS_P1;PMS_P2;Temp;Humidity;BMP_temperature;BMP_pressure;BME280_temperature;BME280_humidity;BME280_pressure;Samples;Min_cycle;Max_cycle;Signal;HPM_P1;HPM_P2
2022/01/26 00:07:01;;;;;;;33.60;30.50;;;;;;;0.71;92.40;98865.98;109668;1273;22683;-76
2022/01/26 00:09:29;;;;;;;35.50;32.10;;;;;;;0.71;92.34;98869.34;109673;1273;23391;-76
2022/01/26 00:11:57;;;;;;;33.00;29.70;;;;;;;0.73;92.35;98866.27;109603;1274;22714;-75
2022/01/26 00:14:25;;;;;;;34.60;31.30;;;;;;;0.73;92.33;98861.61;109689;1272;24372;-72
2022/01/26 00:16:56;;;;;;;37.20;33.60;;;;;;;0.72;92.50;98858.48;109686;1274;22444;-74
2022/01/26 00:19:45;;;;;;;39.20;35.50;;;;;;;0.69;92.43;98857.10;109686;1273;22455;-73
2022/01/26 00:39:16;;;;;;;29.90;27.10;;;;;;;0.55;92.56;98853.52;109673;1274;22569;-73
2022/01/26 00:41:45;;;;;;;30.90;27.80;;;;;;;0.55;92.55;98852.80;109660;1273;22497;-75
2022/01/26 00:44:14;;;;;;;33.10;30.00;;;;;;;0.56;92.83;98857.31;109674;1273;22461;-73
2022/01/26 00:46:48;;;;;;;31.10;28.10;;;;;;;0.56;92.89;98859.60;109670;1274;22446;-74
2022/01/26 00:49:20;;;;;;;31.30;28.40;;;;;;;0.54;92.93;98860.51;109683;1274;23055;-74
2022/01/26 00:51:48;;;;;;;30.00;27.00;;;;;;;0.54;92.76;98859.02;109685;1273;23344;-73
2022/01/26 00:54:16;;;;;;;27.90;25.20;;;;;;;0.53;92.82;98860.31;109678;1273;23133;-72
2022/01/26 00:56:44;;;;;;;26.40;23.90;;;;;;;0.52;92.76;98859.33;109643;1274;22945;-72
2022/01/26 00:59:12;;;;;;;30.30;27.50;;;;;;;0.51;92.96;98854.28;109669;1273;23123;-73
2022/01/26 01:01:40;;;;;;;30.20;27.40;;;;;;;0.51;92.82;98855.84;109677;1274;23215;-73
2022/01/26 01:04:09;;;;;;;27.40;24.80;;;;;;;0.49;93.03;98850.49;109687;1273;22466;-72
2022/01/26 01:06:49;;;;;;;29.80;27.10;;;;;;;0.48;93.03;98846.87;109675;1273;22560;-74
2022/01/26 01:09:18;;;;;;;28.90;26.10;;;;;;;0.46;92.94;98843.40;109673;1272;22389;-74
2022/01/26 01:11:46;;;;;;;29.60;26.80;;;;;;;0.50;93.06;98845.77;109670;1273;23338;-75
2022/01/26 01:14:14;;;;;;;29.90;27.20;;;;;;;0.53;93.00;98847.62;109655;1274;22614;-73
2022/01/26 01:16:45;;;;;;;30.80;28.20;;;;;;;0.56;92.79;98844.19;109668;1271;22451;-75
2022/01/26 01:19:36;;;;;;;28.60;26.00;;;;;;;0.55;92.87;98847.28;109694;1273;22400;-76
2022/01/26 01:30:43;;;;;;;31.10;28.30;;;;;;;0.56;93.08;98846.38;109556;1272;137882;-75
2022/01/26 01:33:18;;;;;;;27.60;24.90;;;;;;;0.54;92.93;98843.54;109672;1274;23208;-74
2022/01/26 01:36:05;;;;;;;25.40;23.20;;;;;;;0.49;93.11;98843.02;109682;1273;22422;-74
2022/01/26 01:38:44;;;;;;;25.60;23.20;;;;;;;0.50;92.95;98839.92;109675;1274;23161;-73
2022/01/26 01:41:27;;;;;;;27.30;24.70;;;;;;;0.50;93.35;98841.30;109696;1274;22468;-73
2022/01/26 01:44:15;;;;;;;28.80;26.20;;;;;;;0.52;93.14;98843.25;109693;1272;22400;-73
2022/01/26 01:47:00;;;;;;;25.60;23.40;;;;;;;0.53;92.99;98845.09;109685;1274;22429;-72
2022/01/26 01:50:12;;;;;;;26.00;23.50;;;;;;;0.52;93.02;98844.04;109677;1272;23174;-72
2022/01/26 01:52:41;;;;;;;25.50;23.10;;;;;;;0.55;92.95;98837.58;109665;1272;22518;-71
2022/01/26 01:55:26;;;;;;;27.50;24.90;;;;;;;0.58;93.02;98831.41;109692;1274;22332;-72
2022/01/26 01:57:57;;;;;;;29.90;27.10;;;;;;;0.56;93.13;98835.14;109679;1274;22402;-72
2022/01/26 02:00:35;;;;;;;29.50;26.60;;;;;;;0.57;93.12;98824.31;109684;1273;22560;-70
2022/01/26 02:03:30;;;;;;;30.40;27.50;;;;;;;0.57;93.15;98819.09;109694;1274;22958;-70
2022/01/26 02:06:04;;;;;;;27.90;25.30;;;;;;;0.58;93.24;98816.02;109672;1272;22553;-72
2022/01/26 02:08:45;;;;;;;30.60;27.80;;;;;;;0.60;93.11;98815.64;109683;1273;22523;-72
2022/01/26 02:11:19;;;;;;;40.20;36.20;;;;;;;0.61;93.06;98813.48;109666;1273;22357;-72
2022/01/26 02:14:07;;;;;;;33.30;30.10;;;;;;;0.60;93.00;98815.52;109677;1274;22535;-71
2022/01/26 02:16:48;;;;;;;38.90;34.80;;;;;;;0.58;93.03;98815.04;109673;1274;22556;-70
2022/01/26 02:53:22;;;;;;;25.60;23.30;;;;;;;0.57;92.97;98800.72;109679;1273;23158;-73
2022/01/26 02:55:55;;;;;;;27.80;25.20;;;;;;;0.57;93.13;98797.54;109680;1274;22434;-73
2022/01/26 03:03:46;;;;;;;25.50;23.10;;;;;;;0.54;92.95;98796.02;109660;1274;22486;-71
2022/01/26 03:06:19;;;;;;;25.20;22.90;;;;;;;0.56;93.03;98792.61;109656;1274;22230;-71
2022/01/26 03:08:56;;;;;;;26.10;23.70;;;;;;;0.57;93.09;98789.44;109685;1273;22390;-70
2022/01/26 03:11:28;;;;;;;27.10;24.60;;;;;;;0.56;93.02;98791.95;109702;1274;22478;-72
2022/01/26 03:14:06;;;;;;;26.30;23.80;;;;;;;0.54;93.13;98783.27;109611;1274;22540;-74
2022/01/26 03:16:41;;;;;;;24.20;22.00;;;;;;;0.55;93.20;98785.06;109663;1273;23076;-75
2022/01/26 03:28:06;;;;;;;22.90;20.90;;;;;;;0.56;93.00;98790.37;109685;1273;23551;-74
2022/01/26 03:30:19;;;;;;;29.20;26.40;;;;;;;0.62;93.08;98786.09;109665;1273;22413;-75
2022/01/26 03:38:17;;;;;;;29.10;26.60;;;;;;;0.69;92.91;98779.81;109688;1273;22532;-72
2022/01/26 03:40:46;;;;;;;31.90;29.10;;;;;;;0.65;92.99;98783.99;109683;1273;22865;-74
2022/01/26 03:43:14;;;;;;;33.60;30.50;;;;;;;0.62;92.86;98782.75;109674;1274;22490;-76
2022/01/26 03:45:42;;;;;;;28.70;26.20;;;;;;;0.59;93.03;98780.59;109676;1274;23117;-77
2022/01/26 03:48:10;;;;;;;33.50;30.30;;;;;;;0.59;92.90;98785.29;109696;1274;23201;-73
2022/01/26 03:50:38;;;;;;;31.30;28.60;;;;;;;0.59;93.08;98781.16;109637;1273;22849;-75
2022/01/26 03:53:06;;;;;;;30.90;28.30;;;;;;;0.58;93.11;98780.65;109674;1273;23202;-76
2022/01/26 03:55:34;;;;;;;27.00;24.50;;;;;;;0.54;93.19;98779.57;109677;1273;22449;-76
2022/01/26 03:58:02;;;;;;;28.50;26.00;;;;;;;0.50;93.18;98782.98;109648;1274;22523;-76
2022/01/26 04:00:30;;;;;;;26.40;24.10;;;;;;;0.48;93.24;98784.62;109610;1274;23306;-73
2022/01/26 04:02:58;;;;;;;27.60;25.20;;;;;;;0.50;93.21;98783.92;109670;1273;22350;-76
2022/01/26 04:05:27;;;;;;;27.80;25.20;;;;;;;0.50;93.21;98783.75;109677;1272;22460;-73
2022/01/26 04:08:01;;;;;;;26.80;24.30;;;;;;;0.48;93.28;98785.35;109671;1273;22465;-74
2022/01/26 04:10:44;;;;;;;26.90;24.60;;;;;;;0.47;93.30;98782.34;109681;1274;22437;-75
2022/01/26 04:13:12;;;;;;;25.40;23.10;;;;;;;0.47;93.15;98782.33;109669;1272;23136;-74
2022/01/26 04:15:40;;;;;;;22.40;20.40;;;;;;;0.49;93.21;98781.77;109671;1274;22560;-76
2022/01/26 04:18:12;;;;;;;26.90;24.60;;;;;;;0.47;93.32;98779.11;109675;1274;22449;-75
2022/01/26 04:20:45;;;;;;;27.20;24.90;;;;;;;0.45;93.41;98780.80;109679;1274;23594;-76
2022/01/26 04:23:20;;;;;;;26.90;24.60;;;;;;;0.41;93.35;98783.38;109659;1272;23307;-75
2022/01/26 04:25:50;;;;;;;25.70;23.20;;;;;;;0.42;93.38;98784.45;109684;1271;22392;-77
2022/01/26 04:28:34;;;;;;;25.80;23.40;;;;;;;0.41;93.45;98786.40;109703;1274;23202;-74
2022/01/26 04:31:02;;;;;;;26.70;24.20;;;;;;;0.44;93.38;98781.77;109678;1274;22457;-74
2022/01/26 04:33:33;;;;;;;27.80;25.20;;;;;;;0.49;93.28;98780.86;109653;1274;22585;-74
2022/01/26 04:36:05;;;;;;;28.80;26.10;;;;;;;0.48;93.22;98781.89;109671;1274;22556;-73
2022/01/26 04:38:42;;;;;;;34.40;31.40;;;;;;;0.47;93.35;98777.23;109682;1273;22462;-74
2022/01/26 04:43:54;;;;;;;24.90;22.60;;;;;;;0.43;93.36;98778.23;109676;1273;22258;-73
2022/01/26 04:46:24;;;;;;;26.10;23.70;;;;;;;0.44;93.34;98784.14;109669;1274;23272;-75
2022/01/26 04:48:53;;;;;;;25.30;22.90;;;;;;;0.47;93.30;98779.97;109649;1273;22486;-75
2022/01/26 04:51:22;;;;;;;28.50;26.00;;;;;;;0.50;93.42;98776.32;109645;1273;22483;-74
2022/01/26 04:53:50;;;;;;;29.20;26.70;;;;;;;0.51;93.27;98773.20;109676;1274;22903;-75
2022/01/26 04:56:18;;;;;;;29.50;26.80;;;;;;;0.49;93.46;98773.52;109686;1272;23098;-74
2022/01/26 04:58:46;;;;;;;25.40;23.10;;;;;;;0.47;93.32;98776.13;109690;1273;22379;-73
2022/01/26 05:01:14;;;;;;;26.60;24.20;;;;;;;0.48;93.35;98774.75;109676;1273;22504;-72
2022/01/26 05:03:43;;;;;;;29.50;26.80;;;;;;;0.47;93.29;98772.05;109656;1274;22564;-72
2022/01/26 05:06:11;;;;;;;28.60;26.00;;;;;;;0.47;93.34;98774.02;109672;1274;22489;-72
2022/01/26 05:08:39;;;;;;;26.80;24.40;;;;;;;0.44;93.30;98769.17;109676;1274;23114;-72
2022/01/26 05:11:10;;;;;;;26.00;23.40;;;;;;;0.43;93.23;98772.23;109677;1273;22540;-72
2022/01/26 05:13:57;;;;;;;27.40;24.90;;;;;;;0.41;93.18;98766.81;109689;1273;22605;-71
2022/01/26 05:16:26;;;;;;;26.70;24.20;;;;;;;0.42;93.21;98761.96;109685;1273;23351;-72
2022/01/26 05:18:55;;;;;;;29.20;26.60;;;;;;;0.43;93.19;98766.57;109690;1274;22409;-71
2022/01/26 05:21:24;;;;;;;30.10;27.30;;;;;;;0.41;93.41;98763.69;109693;1274;22418;-71
2022/01/26 05:23:53;;;;;;;27.50;25.00;;;;;;;0.37;93.46;98755.33;109696;1274;23212;-73
2022/01/26 05:26:21;;;;;;;27.20;24.80;;;;;;;0.38;93.54;98755.58;109667;1274;22508;-74
2022/01/26 05:28:50;;;;;;;29.30;26.80;;;;;;;0.39;93.36;98755.90;109683;1273;22423;-75
2022/01/26 05:31:18;;;;;;;32.20;29.20;;;;;;;0.38;93.16;98748.15;109691;1274;22579;-75
2022/01/26 05:33:47;;;;;;;29.60;27.00;;;;;;;0.38;93.28;98752.94;109666;1273;22437;-72
2022/01/26 05:36:16;;;;;;;31.20;28.40;;;;;;;0.35;93.27;98750.82;109676;1273;22417;-72
2022/01/26 05:38:44;;;;;;;28.10;25.60;;;;;;;0.35;93.38;98750.48;109668;1273;22529;-72
2022/01/26 05:41:12;;;;;;;33.00;29.90;;;;;;;0.36;93.34;98752.65;109666;1273;22454;-72
2022/01/26 05:43:41;;;;;;;31.40;28.70;;;;;;;0.36;93.27;98751.92;109661;1274;22585;-72
2022/01/26 05:46:18;;;;;;;35.20;32.10;;;;;;;0.34;93.45;98749.81;109658;1273;22461;-72
2022/01/26 05:48:50;;;;;;;34.50;31.40;;;;;;;0.32;93.38;98749.33;109665;1274;22405;-72
2022/01/26 05:51:19;;;;;;;31.50;28.60;;;;;;;0.34;93.62;98753.35;109690;1273;22250;-71
2022/01/26 05:53:47;;;;;;;31.10;28.50;;;;;;;0.38;93.51;98749.47;109666;1273;22582;-70
2022/01/26 05:56:15;;;;;;;30.60;27.80;;;;;;;0.41;93.36;98748.55;109666;1274;22458;-71
2022/01/26 05:58:43;;;;;;;38.00;34.50;;;;;;;0.42;93.40;98754.66;109573;1274;22509;-72
2022/01/26 06:01:14;;;;;;;35.00;31.80;;;;;;;0.43;93.54;98755.10;109471;1273;138893;-70
2022/01/26 06:03:42;;;;;;;34.40;31.30;;;;;;;0.41;93.50;98753.98;109673;1273;22472;-71
2022/01/26 06:06:11;;;;;;;34.70;31.60;;;;;;;0.43;93.55;98752.98;109663;1273;23738;-69
2022/01/26 06:08:39;;;;;;;35.00;31.90;;;;;;;0.46;93.52;98748.52;109659;1274;22799;-68
2022/01/26 06:11:07;;;;;;;31.80;29.10;;;;;;;0.49;93.41;98755.24;109671;1273;22556;-71
2022/01/26 06:13:36;;;;;;;32.00;29.10;;;;;;;0.49;93.40;98744.59;109674;1274;22493;-69
2022/01/26 06:16:06;;;;;;;32.70;29.90;;;;;;;0.46;93.44;98744.48;109675;1273;22617;-70
2022/01/26 06:18:34;;;;;;;32.80;29.90;;;;;;;0.42;93.49;98743.03;109685;1273;22469;-70
2022/01/26 06:21:02;;;;;;;34.30;31.30;;;;;;;0.46;93.48;98749.01;109656;1274;22379;-70
2022/01/26 06:23:30;;;;;;;31.20;28.50;;;;;;;0.48;93.62;98748.59;109685;1274;23340;-71
2022/01/26 06:25:58;;;;;;;36.60;33.30;;;;;;;0.47;93.44;98746.11;109657;1273;22578;-74
2022/01/26 06:28:27;;;;;;;36.10;33.00;;;;;;;0.44;93.46;98741.36;109676;1274;22517;-73
2022/01/26 06:30:59;;;;;;;35.80;32.70;;;;;;;0.44;93.41;98743.23;109408;1276;138743;-73
2022/01/26 06:33:28;;;;;;;33.40;30.40;;;;;;;0.43;93.54;98743.72;109692;1273;22477;-73
2022/01/26 06:35:59;;;;;;;63.20;57.30;;;;;;;0.45;93.62;98742.45;109677;1274;22475;-72
2022/01/26 06:38:28;;;;;;;45.20;40.60;;;;;;;0.48;93.61;98739.27;109668;1274;22533;-72
2022/01/26 06:40:58;;;;;;;39.10;35.60;;;;;;;0.48;93.57;98740.15;109679;1274;23167;-74
2022/01/26 06:43:28;;;;;;;47.10;42.60;;;;;;;0.46;93.58;98731.18;109666;1274;22588;-73
2022/01/26 06:46:02;;;;;;;33.00;30.00;;;;;;;0.46;93.67;98735.42;109663;1274;22454;-72
2022/01/26 06:48:47;;;;;;;33.20;30.20;;;;;;;0.44;93.95;98736.13;109695;1273;22443;-73
2022/01/26 06:51:15;;;;;;;36.70;33.40;;;;;;;0.47;93.69;98737.45;109677;1274;23260;-73
2022/01/26 06:53:43;;;;;;;41.50;37.80;;;;;;;0.47;93.88;98736.35;109645;1274;22490;-72
2022/01/26 06:56:11;;;;;;;35.60;32.50;;;;;;;0.47;93.89;98734.55;109681;1274;22518;-73
2022/01/26 06:58:39;;;;;;;37.30;33.90;;;;;;;0.44;94.06;98734.58;109604;1274;22550;-71
2022/01/26 07:01:07;;;;;;;35.40;32.10;;;;;;;0.43;93.97;98742.66;109611;1274;22499;-73
2022/01/26 07:03:36;;;;;;;36.80;33.50;;;;;;;0.43;93.97;98739.73;109606;1274;22337;-73
2022/01/26 07:06:04;;;;;;;36.30;33.00;;;;;;;0.44;94.04;98737.77;109665;1273;22562;-72
2022/01/26 07:08:32;;;;;;;33.20;30.00;;;;;;;0.48;93.79;98734.07;109681;1274;22423;-72
2022/01/26 07:11:00;;;;;;;41.10;37.20;;;;;;;0.50;93.97;98730.60;109667;1273;22481;-72
2022/01/26 07:13:28;;;;;;;37.60;34.20;;;;;;;0.50;93.74;98734.34;109649;1274;23165;-72
2022/01/26 07:21:30;;;;;;;36.20;32.80;;;;;;;0.57;93.78;98740.47;109665;1274;22443;-71
2022/01/26 07:23:59;;;;;;;35.80;32.60;;;;;;;0.58;93.78;98736.98;109664;1274;22763;-71
2022/01/26 07:26:29;;;;;;;35.40;32.20;;;;;;;0.57;93.85;98739.40;109569;1274;22544;-70
2022/01/26 07:29:00;;;;;;;33.00;30.10;;;;;;;0.54;93.72;98738.93;109677;1273;22532;-71
2022/01/26 07:31:28;;;;;;;33.30;30.40;;;;;;;0.54;93.90;98739.21;109666;1274;22455;-71
2022/01/26 07:33:57;;;;;;;38.70;35.20;;;;;;;0.56;93.73;98735.38;109681;1274;22467;-72
2022/01/26 07:36:26;;;;;;;43.60;39.50;;;;;;;0.58;93.79;98732.55;109681;1274;22427;-73
2022/01/26 07:38:55;;;;;;;39.40;35.90;;;;;;;0.56;94.04;98734.72;109652;1274;22408;-72
2022/01/26 07:41:23;;;;;;;40.10;36.20;;;;;;;0.55;93.78;98740.22;109681;1273;22509;-73
2022/01/26 07:43:52;;;;;;;42.60;38.70;;;;;;;0.55;93.88;98738.11;109658;1274;22550;-72
2022/01/26 07:46:22;;;;;;;43.90;40.00;;;;;;;0.56;93.89;98736.14;109681;1273;22463;-71
2022/01/26 07:48:52;;;;;;;45.70;41.60;;;;;;;0.57;93.75;98735.52;109682;1274;22526;-70
2022/01/26 07:51:20;;;;;;;43.00;38.80;;;;;;;0.55;93.83;98737.16;109667;1274;22520;-70
2022/01/26 07:53:49;;;;;;;42.50;38.50;;;;;;;0.53;93.97;98732.95;109662;1273;22468;-71
2022/01/26 07:56:17;;;;;;;47.00;42.60;;;;;;;0.52;93.99;98738.70;109647;1273;22388;-73
2022/01/26 07:58:48;;;;;;;49.70;45.30;;;;;;;0.54;93.90;98736.16;109688;1273;22449;-71
2022/01/26 08:01:16;;;;;;;54.90;50.10;;;;;;;0.54;93.92;98734.48;109657;1274;23267;-72
2022/01/26 08:03:44;;;;;;;48.80;44.40;;;;;;;0.52;94.04;98743.69;109665;1273;22492;-70
2022/01/26 08:06:17;;;;;;;48.10;43.80;;;;;;;0.49;94.14;98744.59;109583;1274;22349;-71
2022/01/26 08:08:45;;;;;;;46.50;42.00;;;;;;;0.50;94.09;98737.77;109676;1273;22518;-72
2022/01/26 08:11:13;;;;;;;45.40;41.30;;;;;;;0.50;94.17;98743.08;109581;1274;22475;-69
2022/01/26 08:13:41;;;;;;;50.70;45.90;;;;;;;0.51;94.02;98743.12;109691;1274;23814;-68
2022/01/26 08:16:09;;;;;;;49.00;44.60;;;;;;;0.51;94.04;98746.01;109700;1274;22448;-69
2022/01/26 08:18:37;;;;;;;53.00;48.10;;;;;;;0.50;94.26;98746.70;109666;1274;22475;-70
2022/01/26 08:21:06;;;;;;;52.10;47.20;;;;;;;0.50;94.10;98743.73;109674;1274;22467;-69
2022/01/26 08:23:36;;;;;;;46.50;41.90;;;;;;;0.51;94.06;98747.61;109654;1273;22475;-69
2022/01/26 08:26:05;;;;;;;43.20;39.20;;;;;;;0.52;94.25;98740.83;109666;1273;23648;-69
2022/01/26 08:28:37;;;;;;;53.20;48.60;;;;;;;0.53;94.21;98743.02;109678;1273;22449;-68
2022/01/26 08:31:06;;;;;;;60.50;54.80;;;;;;;0.52;94.10;98743.27;109684;1274;23175;-68
2022/01/26 08:33:34;;;;;;;55.20;50.20;;;;;;;0.53;94.20;98745.55;109666;1274;22376;-68
2022/01/26 08:36:03;;;;;;;54.20;49.30;;;;;;;0.58;94.33;98745.56;109670;1273;23309;-70
2022/01/26 08:38:31;;;;;;;47.60;43.40;;;;;;;0.64;94.26;98747.77;109668;1274;22571;-70
2022/01/26 08:40:59;;;;;;;48.50;44.10;;;;;;;0.66;94.00;98747.58;109633;1274;22442;-70
2022/01/26 08:43:27;;;;;;;46.40;42.00;;;;;;;0.66;94.13;98748.85;109659;1273;22494;-70
2022/01/26 08:45:55;;;;;;;48.40;44.10;;;;;;;0.65;94.08;98749.52;109652;1273;22394;-72
2022/01/26 08:48:23;;;;;;;47.70;43.40;;;;;;;0.67;94.10;98751.34;109674;1273;22342;-68
2022/01/26 08:50:52;;;;;;;53.00;48.20;;;;;;;0.70;94.01;98753.43;109683;1273;22574;-73
2022/01/26 08:53:22;;;;;;;51.90;46.90;;;;;;;0.70;94.19;98752.02;109680;1273;22574;-71
2022/01/26 08:55:51;;;;;;;52.40;47.20;;;;;;;0.71;94.16;98753.35;109585;1275;22320;-70
2022/01/26 08:58:20;;;;;;;46.10;41.60;;;;;;;0.72;94.23;98753.55;109671;1273;23266;-73
2022/01/26 09:00:48;;;;;;;43.70;39.40;;;;;;;0.72;94.29;98754.41;109680;1273;23001;-72
2022/01/26 09:03:18;;;;;;;46.30;41.80;;;;;;;0.72;94.17;98749.02;109660;1274;22483;-70
2022/01/26 09:05:47;;;;;;;45.60;41.40;;;;;;;0.75;94.21;98757.33;109671;1274;22261;-71
2022/01/26 09:08:19;;;;;;;47.90;43.40;;;;;;;0.74;94.25;98758.92;109672;1274;22431;-71
2022/01/26 09:10:56;;;;;;;41.10;37.30;;;;;;;0.75;94.39;98758.41;109685;1273;22427;-73
2022/01/26 09:13:25;;;;;;;40.00;36.20;;;;;;;0.77;94.37;98758.49;109689;1274;23712;-70
2022/01/26 09:15:58;;;;;;;38.00;34.40;;;;;;;0.78;94.28;98758.85;109674;1273;22412;-69
2022/01/26 09:18:57;;;;;;;39.00;35.40;;;;;;;0.82;94.21;98759.56;109665;1274;22466;-70
2022/01/26 09:21:45;;;;;;;42.90;38.50;;;;;;;0.84;94.40;98761.88;109688;1274;23122;-70
2022/01/26 09:24:19;;;;;;;34.80;31.30;;;;;;;0.84;94.38;98762.22;109656;1274;22473;-69
2022/01/26 09:26:52;;;;;;;40.50;32.60;;;;;;;0.83;94.33;98763.37;109673;1273;22489;-69
2022/01/26 09:29:26;;;;;;;;;;;;;;;0.83;94.37;98759.40;109700;1272;23106;-69
2022/01/26 09:32:00;;;;;;;39.90;36.20;;;;;;;0.84;94.31;98764.83;109669;1274;22517;-69
2022/01/26 09:34:35;;;;;;;39.50;35.80;;;;;;;0.84;94.38;98763.55;109662;1274;22482;-70
2022/01/26 09:37:07;;;;;;;;;;;;;;;0.85;94.27;98766.63;109684;1273;22558;-68
2022/01/26 09:39:41;;;;;;;34.40;30.90;;;;;;;0.82;94.40;98766.41;109672;1272;22550;-70
2022/01/26 09:42:15;;;;;;;35.20;32.00;;;;;;;0.84;94.33;98770.41;109680;1273;22354;-71
2022/01/26 09:44:47;;;;;;;37.30;34.00;;;;;;;0.85;94.25;98772.16;109656;1274;22465;-71
2022/01/26 09:47:15;;;;;;;37.80;34.00;;;;;;;0.88;94.24;98772.14;109662;1273;22546;-71
2022/01/26 09:49:55;;;;;;;39.40;35.70;;;;;;;0.89;94.34;98773.19;109655;1273;22549;-69
2022/01/26 09:52:53;;;;;;;46.60;42.20;;;;;;;0.88;94.32;98763.13;109687;1273;22443;-69
2022/01/26 09:55:32;;;;;;;46.20;41.90;;;;;;;0.91;94.44;98760.98;109591;1274;22810;-70
2022/01/26 09:58:06;;;;;;;50.20;45.30;;;;;;;0.93;94.26;98763.10;109610;1273;23351;-70
2022/01/26 10:00:40;;;;;;;51.60;46.70;;;;;;;0.94;94.29;98769.11;109680;1272;22556;-70
2022/01/26 10:03:14;;;;;;;56.80;51.20;;;;;;;0.93;94.35;98766.67;109680;1273;22562;-70
2022/01/26 10:05:49;;;;;;;49.50;44.90;;;;;;;0.90;94.54;98764.88;109696;1274;22581;-70
2022/01/26 10:17:23;;;;;;;44.30;40.20;;;;;;;0.84;94.59;98753.75;109637;1273;22452;-69
2022/01/26 10:20:09;;;;;;;43.10;39.00;;;;;;;0.80;94.81;98744.32;109539;1274;22403;-69
2022/01/26 10:22:42;;;;;;;44.80;40.60;;;;;;;0.79;94.63;98744.23;109629;1274;22454;-69
2022/01/26 10:25:21;;;;;;;45.50;41.10;;;;;;;0.79;94.68;98741.99;109668;1274;23182;-69
2022/01/26 10:28:11;;;;;;;50.90;45.80;;;;;;;0.80;94.86;98736.36;109653;1274;22437;-70
2022/01/26 10:30:55;;;;;;;48.00;43.50;;;;;;;0.80;94.75;98741.92;109515;1274;22467;-70
2022/01/26 10:33:26;;;;;;;44.10;40.10;;;;;;;0.78;95.07;98739.15;109653;1274;23295;-68
2022/01/26 10:36:01;;;;;;;47.60;43.20;;;;;;;0.79;94.83;98738.64;109661;1274;22539;-71
2022/01/26 10:38:35;;;;;;;48.00;43.40;;;;;;;0.80;94.84;98739.14;109657;1274;23146;-70
2022/01/26 10:41:23;;;;;;;49.00;44.20;;;;;;;0.82;94.65;98732.26;109494;1274;22368;-71
2022/01/26 10:43:58;;;;;;;50.90;46.00;;;;;;;0.83;94.86;98734.34;109530;1274;22457;-71
2022/01/26 10:46:34;;;;;;;53.50;48.50;;;;;;;0.82;94.71;98726.02;109650;1274;22423;-70
2022/01/26 10:49:18;;;;;;;49.80;45.10;;;;;;;0.79;94.95;98727.06;109656;1274;22563;-69
2022/01/26 10:51:55;;;;;;;56.00;50.30;;;;;;;0.78;94.87;98726.26;109654;1272;22539;-69
2022/01/26 10:57:14;;;;;;;53.50;47.80;;;;;;;0.84;94.78;98713.07;109657;1274;22448;-70
2022/01/26 10:59:49;;;;;;;58.50;52.70;;;;;;;0.89;94.73;98715.19;109656;1274;22529;-72
2022/01/26 11:02:22;;;;;;;;;;;;;;;0.92;94.89;98710.48;109676;1274;22462;-70
2022/01/26 11:04:51;;;;;;;48.20;43.80;;;;;;;0.86;94.99;98717.95;109671;1273;22390;-70
2022/01/26 11:07:19;;;;;;;50.30;45.00;;;;;;;0.82;94.59;98710.27;109655;1274;22439;-71
2022/01/26 11:09:48;;;;;;;51.10;46.30;;;;;;;0.83;94.77;98711.52;109667;1274;22423;-70
2022/01/26 11:12:27;;;;;;;53.20;47.80;;;;;;;0.86;94.85;98708.55;109632;1274;22414;-71
2022/01/26 11:15:13;;;;;;;59.30;52.20;;;;;;;0.90;94.87;98702.84;109646;1274;22409;-70
2022/01/26 11:17:46;;;;;;;56.80;51.10;;;;;;;0.93;94.73;98699.37;109639;1274;22432;-70
2022/01/26 11:20:19;;;;;;;58.60;52.30;;;;;;;0.92;94.78;98699.66;109657;1274;22632;-70
2022/01/26 11:22:59;;;;;;;64.30;58.00;;;;;;;0.94;94.71;98696.48;109638;1274;22609;-71
2022/01/26 11:25:29;;;;;;;60.10;53.70;;;;;;;0.98;94.64;98698.10;109658;1274;22433;-71
2022/01/26 11:27:58;;;;;;;69.90;63.10;;;;;;;1.00;94.52;98692.16;109655;1274;22499;-70
2022/01/26 11:30:32;;;;;;;57.40;51.70;;;;;;;1.01;94.67;98696.27;109632;1274;23859;-71
2022/01/26 11:33:04;;;;;;;63.60;57.10;;;;;;;0.99;94.66;98693.55;109631;1274;22461;-70
2022/01/26 11:35:35;;;;;;;59.30;51.40;;;;;;;0.99;94.57;98693.35;109644;1272;22534;-69
2022/01/26 11:38:12;;;;;;;56.20;50.50;;;;;;;1.00;94.69;98692.33;109629;1273;22442;-71
2022/01/26 11:46:28;;;;;;;62.70;56.00;;;;;;;1.02;94.48;98683.38;109646;1274;22480;-70
2022/01/26 11:49:11;;;;;;;56.00;50.50;;;;;;;1.01;94.60;98674.84;109653;1274;22419;-70
2022/01/26 11:51:46;;;;;;;46.60;42.20;;;;;;;1.06;94.58;98677.77;109661;1274;22267;-68
2022/01/26 11:54:18;;;;;;;67.20;60.30;;;;;;;1.06;94.45;98675.20;109650;1274;22479;-69
2022/01/26 11:57:13;;;;;;;57.10;51.80;;;;;;;1.05;94.31;98677.98;109662;1274;23446;-69
2022/01/26 11:59:50;;;;;;;51.50;46.60;;;;;;;1.02;94.52;98676.74;109634;1274;22256;-69
2022/01/26 12:02:40;;;;;;;50.40;45.30;;;;;;;1.01;94.50;98678.24;109649;1274;22537;-69
2022/01/26 12:05:12;;;;;;;59.00;53.30;;;;;;;1.00;94.42;98675.17;109650;1274;23212;-69
2022/01/26 12:07:51;;;;;;;51.40;46.70;;;;;;;0.99;94.62;98670.65;109661;1274;22458;-69
2022/01/26 12:10:28;;;;;;;47.90;43.70;;;;;;;0.98;94.61;98675.11;109646;1273;22411;-70
2022/01/26 12:13:09;;;;;;;43.60;39.60;;;;;;;0.94;94.69;98670.48;109629;1274;22462;-69
2022/01/26 12:32:01;;;;;;;51.90;47.10;;;;;;;0.93;94.69;98666.46;109636;1272;22448;-70
2022/01/26 12:43:06;;;;;;;44.20;40.10;;;;;;;0.79;94.86;98651.34;109658;1274;23209;-70
2022/01/26 12:46:09;;;;;;;39.00;35.70;;;;;;;0.81;94.60;98646.93;109659;1274;22571;-69
2022/01/26 12:48:40;;;;;;;37.00;33.80;;;;;;;0.82;94.64;98644.38;109574;1274;22516;-70
2022/01/26 12:51:12;;;;;;;39.60;36.10;;;;;;;0.82;94.58;98644.42;109641;1274;22437;-70
2022/01/26 12:53:53;;;;;;;43.40;39.60;;;;;;;0.80;94.66;98638.73;109663;1271;22254;-71
2022/01/26 12:56:35;;;;;;;37.40;34.10;;;;;;;0.79;94.89;98637.80;109653;1274;22390;-68
2022/01/26 12:59:12;;;;;;;36.90;33.60;;;;;;;0.80;94.85;98636.41;109356;1277;23075;-70
2022/01/26 13:01:41;;;;;;;36.20;32.90;;;;;;;0.81;94.79;98632.51;109393;1277;22587;-70
2022/01/26 13:04:18;;;;;;;35.80;32.80;;;;;;;0.84;94.64;98627.36;109357;1276;22459;-71
2022/01/26 13:06:51;;;;;;;36.40;33.30;;;;;;;0.84;94.66;98629.14;109380;1277;22454;-71
2022/01/26 13:09:29;;;;;;;38.50;35.10;;;;;;;0.82;94.79;98624.95;109591;1274;23072;-72
2022/01/26 13:12:00;;;;;;;34.60;31.30;;;;;;;0.84;94.92;98623.59;109601;1274;22513;-72
2022/01/26 13:20:19;;;;;;;36.10;32.90;;;;;;;0.92;94.74;98626.80;109635;1274;23666;-72
2022/01/26 13:39:46;;;;;;;34.10;31.10;;;;;;;0.89;94.71;98619.60;109605;1274;22901;-73
2022/01/26 13:42:51;;;;;;;33.20;30.40;;;;;;;0.90;94.62;98619.09;109658;1274;22319;-71
2022/01/26 13:50:47;;;;;;;35.50;32.50;;;;;;;0.86;95.00;98621.63;109619;1274;22449;-72
2022/01/26 13:53:23;;;;;;;35.30;32.10;;;;;;;0.85;94.63;98623.88;109627;1274;22595;-72
2022/01/26 13:56:08;;;;;;;39.20;35.80;;;;;;;0.85;94.72;98623.02;109624;1274;22412;-72
2022/01/26 14:01:15;;;;;;;36.80;33.70;;;;;;;0.85;94.82;98627.17;109636;1273;22467;-73
2022/01/26 14:03:48;;;;;;;43.50;39.80;;;;;;;0.81;94.86;98625.63;109627;1274;22555;-71
2022/01/26 14:06:16;;;;;;;42.20;38.80;;;;;;;0.79;94.72;98628.09;109630;1274;22408;-73
2022/01/26 14:08:44;;;;;;;39.90;36.40;;;;;;;0.77;94.83;98625.90;109641;1274;22645;-72
2022/01/26 14:11:12;;;;;;;43.80;39.90;;;;;;;0.76;95.04;98628.27;109626;1274;22490;-78
2022/01/26 14:13:40;;;;;;;64.70;58.90;;;;;;;0.78;94.79;98630.17;109627;1272;22505;-76
2022/01/26 14:16:10;;;;;;;53.90;49.30;;;;;;;0.77;94.78;98629.00;109631;1274;22439;-78
2022/01/26 14:18:50;;;;;;;62.80;57.50;;;;;;;0.76;94.85;98630.98;109587;1275;23147;-77
2022/01/26 14:24:22;;;;;;;49.80;45.50;;;;;;;0.74;94.86;98625.07;109632;1274;22601;-74
2022/01/26 14:26:51;;;;;;;61.30;55.90;;;;;;;0.76;94.87;98626.84;109632;1274;23283;-73
2022/01/26 14:29:29;;;;;;;57.70;52.60;;;;;;;0.79;94.64;98621.88;109268;1274;492921;-75
2022/01/26 14:35:08;;;;;;;57.60;52.50;;;;;;;0.74;94.87;98623.89;109661;1274;22550;-74